NCAR-RAP Real-Time Weather Data

Output produced by METARs form (10 April 2020  07:21 UTC)
found at http://weather.rap.ucar.edu/surface/
 
KGFK 100653Z AUTO 17003KT 10SM CLR M03/M05 A3008 RMK AO2 SLP198 T10281050
KGFK 100553Z AUTO 00000KT 10SM CLR M03/M05 A3009 RMK AO2 SLP203 I1000 I6000 T10281050 10028 21039 400391039 58007
KGFK 100453Z AUTO 00000KT 10SM CLR M03/M04 A3009 RMK AO2 SLP205 LAST I1000 T10281044
KGFK 100430Z 16003KT 10SM CLR M02/M04 A3010 RMK AO2 LAST I1000 T10221044
KGFK 100353Z 20003KT 10SM CLR M03/M05 A3011 RMK AO2 SLP211 T10331050
KGFK 100253Z 00000KT 10SM CLR M03/M05 A3011 RMK AO2 SLP211 T10331050 53002
KGFK 100153Z 03003KT 10SM FEW040 M01/M04 A3011 RMK AO2 SLP209 T10061044
KGFK 100053Z 01003KT 10SM FEW045 02/M04 A3010 RMK AO2 SLP206 T00171039
KGFK 092353Z 05009KT 10SM FEW038 BKN045 03/M03 A3011 RMK AO2 SLP208 T00281033 10039 21011 56006
KGFK 092253Z 36007KT 10SM BKN044 02/M04 A3011 RMK AO2 SLP209 T00221039
KGFK 092153Z 34012G23KT 10SM OVC039 03/M04 A3012 RMK AO2 SLP211 T00331039
KGFK 092053Z 32015G24KT 10SM SCT026 BKN034 03/M04 A3013 RMK AO2 SLP214 T00281039 56002
KGFK 092015Z 33014KT 10SM BKN026 02/M04 A3013 RMK AO2 T00171039
KGFK 091953Z 35016KT 10SM SCT025 01/M04 A3013 RMK AO2 PK WND 34028/1900 SLP215 T00111039
KGFK 091923Z 33020G26KT 10SM SCT024 01/M06 A3013 RMK AO2 PK WND 34028/1900 T00061056 $
KGFK 091853Z 34019G27KT 10SM BKN024 01/M05 A3013 RMK AO2 PK WND 34031/1757 SLP216 T00061050 $
KGFK 091842Z 35018G25KT 10SM BKN024 00/M06 A3013 RMK AO2 PK WND 34031/1757 T00001056 $
KGFK 091831Z 34019KT 10SM SCT022 00/M06 A3013 RMK AO2 PK WND 34031/1757 T00001061 $
KGFK 091753Z 33023G33KT 10SM OVC020 M01/M06 A3012 RMK AO2 PK WND 33033/1751 SLP213 60000 T10111061 11011 21033 51025 $
KGFK 091653Z 33020G31KT 10SM OVC021 M02/M06 A3010 RMK AO2 PK WND 33031/1646 SNE17 SLP205 P0000 T10171061
KGFK 091553Z 32017G29KT 8SM -SN BKN026 OVC031 M02/M07 A3008 RMK AO2 PK WND 34031/1509 SNB43 SLP197 P0000 T10221067
KGFK 091453Z 33024G31KT 10SM SCT017 BKN025 BKN200 M02/M07 A3005 RMK AO2 PK WND 34031/1453 SLP188 60000 T10221072 51033
KGFK 091424Z 34018G25KT 10SM FEW017 SCT022 SCT200 M02/M07 A3003 RMK AO2 PK WND 35029/1410 T10221067 $
KGFK 091353Z 34020G29KT 10SM BKN015 BKN200 M02/M06 A3002 RMK AO2 PK WND 35029/1351 SNE03 SLP178 P0000 T10221056 $
KGFK 091312Z 35018G26KT 10SM BKN015 BKN025 OVC095 M02/M06 A3000 RMK AO2 PK WND 35026/1309 SNE03 P0000 T10221056 $
KGFK 091305Z 35015KT 7SM BKN014 BKN024 OVC046 M02/M05 A2999 RMK AO2 SNE03 P0000 T10221050
KGFK 091258Z 35015G25KT 2SM -SN BLSN FEW014 BKN023 OVC040 M03/M06 A2999 RMK AO2 TWR VIS 6 P0000 T10281056
KGFK 091253Z 34020G28KT 3/4SM R35L/4500VP6000FT -SN BLSN FEW016 BKN023 OVC070 M03/M06 A2998 RMK AO2 PK WND 34028/1244 TWR VIS 1 SNB44 SLP166 P0000 T10281056
KGFK 091248Z 34021G28KT 1SM R35L/4500VP6000FT -SN BKN020 OVC060 M03/M06 A2998 RMK AO2 PK WND 34028/1244 SNB44 P0000
KGFK 091153Z 32011KT 10SM SCT090 BKN120 M03/M07 A2995 RMK AO2 SLP152 60000 T10281067 11006 21033 53022
KGFK 091053Z 32012KT 10SM SCT095 M03/M06 A2992 RMK AO2 SLP142 T10281061
KGFK 090953Z AUTO 32010KT 10SM FEW070 SCT085 M03/M06 A2990 RMK AO2 PK WND 34026/0916 SNE32 SLP135 P0000 T10331056
KGFK 090933Z AUTO 33011KT 9SM FEW021 BKN065 OVC090 M03/M06 A2989 RMK AO2 PK WND 34026/0916 SNE32 P0000 T10281056
KGFK 090923Z AUTO 33015G26KT 2SM R35L/5500VP6000FT -SN SCT023 BKN033 OVC060 M03/M06 A2989 RMK AO2 PK WND 34026/0916 P0000 T10281056
KGFK 090905Z AUTO 34017G24KT 9SM -SN BKN029 BKN035 OVC044 M02/M06 A2988 RMK AO2 P0000 T10221056
KGFK 090853Z AUTO 32009KT 9SM -SN BKN031 BKN035 OVC042 M03/M06 A2988 RMK AO2 SNB07E42B53 SLP130 P0000 60000 T10281056 51004
KGFK 090851Z AUTO 33011KT 10SM BKN031 BKN035 OVC042 M03/M06 A2988 RMK AO2 SNB07E42 P0000
KGFK 090836Z AUTO 33011KT 6SM -SN FEW016 BKN027 OVC037 M03/M06 A2988 RMK AO2 SNB07 P0000 T10281056
KGFK 090823Z AUTO 35014KT 2 1/2SM -SN SCT019 BKN026 OVC043 M02/M05 A2988 RMK AO2 VIS 1 1/2V4 SNB07 P0000 T10221050